Citta Di Savona — IMDS — position and weather

sailwx.info

Track history (hours):
 
Tides and Currents Weather Stations Pressure Air Temp Water Temp Dewpoint Dewpoint Depression Visibility Wind Speed Wind Dir Waves Ship Positions

Citta Di Savona

Last reported at 2014-Jul-28 11:25 UTC. Time now 2014-Jul-28 14:34 UTC.
Position N 44°18' E 008°29'.

Length 31 m; draft 4.2 m.

Type: Tug. MMSI: 247402000.

Date/timePositionNaut miles runAvg speedWind from/ knotsBaromVisibWave heightAir tempDewpointWater temp
2014-Jul-28 11:25N 44°18' E 008°29'0 0.0
2014-Jul-28 10:31N 44°18' E 008°29'0 0.0
2014-Jul-28 09:18N 44°18' E 008°29'0 0.0
2014-Jul-28 08:08N 44°18' E 008°29'0 0.0
2014-Jul-28 07:33N 44°18' E 008°29'0 0.0
2014-Jul-28 06:33N 44°18' E 008°29'0 0.0
2014-Jul-28 04:07N 44°18' E 008°29'0 0.0
2014-Jul-27 18:33N 44°18' E 008°29'2 2.2
2014-Jul-27 17:33N 44°17' E 008°28'0 0.3
2014-Jul-27 16:33N 44°17' E 008°28'2 2.2
2014-Jul-27 15:33N 44°18' E 008°29'0 0.0
2014-Jul-27 07:32N 44°18' E 008°29'1 1.0
2014-Jul-27 06:27N 44°19' E 008°31'1 0.5
2014-Jul-27 04:17N 44°18' E 008°29'0 0.0
2014-Jul-27 03:32N 44°18' E 008°29'0 0.0
2014-Jul-27 02:32N 44°18' E 008°29'0 0.0
2014-Jul-27 01:33N 44°18' E 008°29'0 0.0
2014-Jul-27 00:33N 44°18' E 008°29'0 0.0
2014-Jul-26 23:33N 44°18' E 008°29'0 0.0
2014-Jul-26 22:18N 44°18' E 008°29'0 0.0
2014-Jul-26 12:16N 44°18' E 008°29'0 0.0
2014-Jul-26 11:33N 44°18' E 008°29'2 2.1
2014-Jul-26 10:30N 44°17' E 008°27'0 0.0
2014-Jul-26 09:06N 44°17' E 008°28'1 0.9
2014-Jul-26 08:18N 44°16' E 008°28'2 2.4
2014-Jul-26 07:33N 44°18' E 008°29'1 0.4
2014-Jul-26 05:17N 44°18' E 008°29'0 0.0
2014-Jul-26 04:07N 44°18' E 008°29'0 0.0
2014-Jul-26 03:33N 44°18' E 008°29'0 0.0
2014-Jul-25 19:33N 44°18' E 008°29'0 0.2
2014-Jul-25 16:33N 44°19' E 008°30'0 0.1
2014-Jul-25 07:32N 44°18' E 008°29'0 0.0
2014-Jul-25 04:26N 44°18' E 008°29'0 0.0
2014-Jul-25 03:33N 44°18' E 008°29'0 0.0
2014-Jul-25 02:33N 44°18' E 008°29'0 0.0
2014-Jul-25 01:33N 44°18' E 008°29'0 0.0
2014-Jul-25 00:33N 44°18' E 008°29'0 0.0
2014-Jul-24 23:32N 44°18' E 008°29'0 0.0
2014-Jul-24 22:18N 44°18' E 008°29'0 0.0
2014-Jul-24 21:16N 44°18' E 008°29'0 0.0
2014-Jul-24 20:18N 44°18' E 008°29'0 0.0
2014-Jul-24 19:31N 44°18' E 008°29'0 0.0
2014-Jul-24 16:24N 44°18' E 008°29'0 0.0
2014-Jul-24 15:31N 44°18' E 008°29'0 0.0
2014-Jul-24 14:24N 44°18' E 008°29'0 0.0
2014-Jul-24 12:16N 44°18' E 008°29'0 0.0
2014-Jul-24 06:33N 44°18' E 008°29'0 0.0
2014-Jul-23 17:33N 44°18' E 008°29'0 0.0
2014-Jul-23 16:28N 44°18' E 008°29'0 0.0
2014-Jul-23 15:33N 44°18' E 008°29'0 0.0
2014-Jul-23 14:33N 44°18' E 008°29'2 1.7
2014-Jul-23 13:33N 44°17' E 008°28'1 0.7
2014-Jul-23 11:33N 44°16' E 008°27'0 0.0
2014-Jul-23 10:33N 44°16' E 008°27'0 0.1
2014-Jul-23 09:32N 44°16' E 008°27'3 3.5
2014-Jul-23 08:33N 44°19' E 008°30'0 0.3
2014-Jul-23 07:33N 44°18' E 008°29'0 0.0
2014-Jul-23 06:33N 44°18' E 008°29'0 0.0
2014-Jul-23 05:33N 44°18' E 008°29'0 0.0
2014-Jul-23 04:33N 44°18' E 008°29'0 0.0
2014-Jul-23 03:33N 44°18' E 008°29'0 0.0
2014-Jul-23 02:33N 44°18' E 008°29'0 0.0
2014-Jul-23 01:31N 44°18' E 008°29'0 0.0
2014-Jul-23 00:33N 44°18' E 008°29'0 0.0
2014-Jul-22 23:33N 44°18' E 008°29'0 0.0
2014-Jul-22 22:33N 44°18' E 008°29'0 0.0
2014-Jul-22 21:33N 44°18' E 008°29'0 0.0
2014-Jul-22 20:18N 44°18' E 008°29'0 0.0
2014-Jul-22 19:33N 44°18' E 008°29'0 0.0
2014-Jul-22 18:33N 44°18' E 008°29'0 0.0
2014-Jul-22 17:33N 44°18' E 008°29'0 0.0
2014-Jul-22 16:33N 44°18' E 008°29'0 0.0
2014-Jul-22 15:33N 44°18' E 008°29'0 0.0
2014-Jul-22 14:29N 44°18' E 008°29'0 0.0
2014-Jul-22 13:32N 44°18' E 008°29'0 0.0
2014-Jul-22 12:33N 44°18' E 008°29'0 0.0
2014-Jul-22 11:33N 44°18' E 008°29'0 0.0
2014-Jul-22 10:28N 44°18' E 008°29'0 0.0
2014-Jul-21 16:08N 44°18' E 008°29'1 1.2
2014-Jul-21 15:33N 44°19' E 008°30'3 3.1
2014-Jul-21 14:33N 44°16' E 008°28'0 0.2
2014-Jul-21 13:27N 44°17' E 008°28'1 0.8
2014-Jul-21 12:15N 44°16' E 008°27'0 0.0
2014-Jul-21 11:33N 44°16' E 008°27'0 0.0
2014-Jul-21 10:24N 44°16' E 008°27'0 0.0
2014-Jul-21 09:30N 44°16' E 008°27'0 0.0
2014-Jul-21 08:17N 44°16' E 008°27'0 0.0
2014-Jul-21 07:33N 44°16' E 008°27'1 0.5
2014-Jul-21 06:19N 44°16' E 008°27'1 0.6
2014-Jul-21 05:18N 44°16' E 008°27'2 1.9
2014-Jul-21 04:26N 44°17' E 008°29'2 1.8
2014-Jul-21 03:32N 44°18' E 008°29'0 0.0
2014-Jul-20 11:32N 44°18' E 008°29'0 0.0
2014-Jul-20 10:17N 44°18' E 008°29'0 0.0
2014-Jul-20 09:33N 44°18' E 008°29'2 2.2
2014-Jul-20 08:33N 44°17' E 008°28'0 0.2
2014-Jul-20 07:33N 44°16' E 008°28'1 0.6
2014-Jul-20 06:33N 44°16' E 008°28'3 0.2
2014-Jul-19 12:06N 44°18' E 008°29'0 0.0
2014-Jul-19 11:31N 44°18' E 008°29'0 0.0
2014-Jul-19 10:31N 44°18' E 008°29'0 0.0
2014-Jul-19 09:21N 44°18' E 008°29'0 0.0
2014-Jul-19 08:04N 44°18' E 008°29'0 0.0
2014-Jul-19 07:24N 44°18' E 008°29'0 0.0
2014-Jul-19 06:33N 44°18' E 008°29'0 0.0
2014-Jul-19 05:33N 44°18' E 008°29'0 0.0
2014-Jul-19 04:26N 44°18' E 008°29'0 0.0
2014-Jul-18 11:33N 44°18' E 008°29'  
Track history (hours):
 
Tides and Currents Weather Stations Pressure Air Temp Water Temp Dewpoint Dewpoint Depression Visibility Wind Speed Wind Dir Waves Ship Positions

Citta Di Savona

Last reported at 2014-Jul-28 11:25 UTC. Time now 2014-Jul-28 14:34 UTC.
Position N 44°18' E 008°29'.

Length 31 m; draft 4.2 m.

Type: Tug. MMSI: 247402000.

Date/timePositionNaut miles runAvg speedWind from/ knotsBaromVisibWave heightAir tempDewpointWater temp
2014-Jul-28 11:25N 44°18' E 008°29'0 0.0
2014-Jul-28 10:31N 44°18' E 008°29'0 0.0
2014-Jul-28 09:18N 44°18' E 008°29'0 0.0
2014-Jul-28 08:08N 44°18' E 008°29'0 0.0
2014-Jul-28 07:33N 44°18' E 008°29'0 0.0
2014-Jul-28 06:33N 44°18' E 008°29'0 0.0
2014-Jul-28 04:07N 44°18' E 008°29'0 0.0
2014-Jul-27 18:33N 44°18' E 008°29'2 2.2
2014-Jul-27 17:33N 44°17' E 008°28'0 0.3
2014-Jul-27 16:33N 44°17' E 008°28'2 2.2
2014-Jul-27 15:33N 44°18' E 008°29'0 0.0
2014-Jul-27 07:32N 44°18' E 008°29'1 1.0
2014-Jul-27 06:27N 44°19' E 008°31'1 0.5
2014-Jul-27 04:17N 44°18' E 008°29'0 0.0
2014-Jul-27 03:32N 44°18' E 008°29'0 0.0
2014-Jul-27 02:32N 44°18' E 008°29'0 0.0
2014-Jul-27 01:33N 44°18' E 008°29'0 0.0
2014-Jul-27 00:33N 44°18' E 008°29'0 0.0
2014-Jul-26 23:33N 44°18' E 008°29'0 0.0
2014-Jul-26 22:18N 44°18' E 008°29'0 0.0
2014-Jul-26 12:16N 44°18' E 008°29'0 0.0
2014-Jul-26 11:33N 44°18' E 008°29'2 2.1
2014-Jul-26 10:30N 44°17' E 008°27'0 0.0
2014-Jul-26 09:06N 44°17' E 008°28'1 0.9
2014-Jul-26 08:18N 44°16' E 008°28'2 2.4
2014-Jul-26 07:33N 44°18' E 008°29'1 0.4
2014-Jul-26 05:17N 44°18' E 008°29'0 0.0
2014-Jul-26 04:07N 44°18' E 008°29'0 0.0
2014-Jul-26 03:33N 44°18' E 008°29'0 0.0
2014-Jul-25 19:33N 44°18' E 008°29'0 0.2
2014-Jul-25 16:33N 44°19' E 008°30'0 0.1
2014-Jul-25 07:32N 44°18' E 008°29'0 0.0
2014-Jul-25 04:26N 44°18' E 008°29'0 0.0
2014-Jul-25 03:33N 44°18' E 008°29'0 0.0
2014-Jul-25 02:33N 44°18' E 008°29'0 0.0
2014-Jul-25 01:33N 44°18' E 008°29'0 0.0
2014-Jul-25 00:33N 44°18' E 008°29'0 0.0
2014-Jul-24 23:32N 44°18' E 008°29'0 0.0
2014-Jul-24 22:18N 44°18' E 008°29'0 0.0
2014-Jul-24 21:16N 44°18' E 008°29'0 0.0
2014-Jul-24 20:18N 44°18' E 008°29'0 0.0
2014-Jul-24 19:31N 44°18' E 008°29'0 0.0
2014-Jul-24 16:24N 44°18' E 008°29'0 0.0
2014-Jul-24 15:31N 44°18' E 008°29'0 0.0
2014-Jul-24 14:24N 44°18' E 008°29'0 0.0
2014-Jul-24 12:16N 44°18' E 008°29'0 0.0
2014-Jul-24 06:33N 44°18' E 008°29'0 0.0
2014-Jul-23 17:33N 44°18' E 008°29'0 0.0
2014-Jul-23 16:28N 44°18' E 008°29'0 0.0
2014-Jul-23 15:33N 44°18' E 008°29'0 0.0
2014-Jul-23 14:33N 44°18' E 008°29'2 1.7
2014-Jul-23 13:33N 44°17' E 008°28'1 0.7
2014-Jul-23 11:33N 44°16' E 008°27'0 0.0
2014-Jul-23 10:33N 44°16' E 008°27'0 0.1
2014-Jul-23 09:32N 44°16' E 008°27'3 3.5
2014-Jul-23 08:33N 44°19' E 008°30'0 0.3
2014-Jul-23 07:33N 44°18' E 008°29'0 0.0
2014-Jul-23 06:33N 44°18' E 008°29'0 0.0
2014-Jul-23 05:33N 44°18' E 008°29'0 0.0
2014-Jul-23 04:33N 44°18' E 008°29'0 0.0
2014-Jul-23 03:33N 44°18' E 008°29'0 0.0
2014-Jul-23 02:33N 44°18' E 008°29'0 0.0
2014-Jul-23 01:31N 44°18' E 008°29'0 0.0
2014-Jul-23 00:33N 44°18' E 008°29'0 0.0
2014-Jul-22 23:33N 44°18' E 008°29'0 0.0
2014-Jul-22 22:33N 44°18' E 008°29'0 0.0
2014-Jul-22 21:33N 44°18' E 008°29'0 0.0
2014-Jul-22 20:18N 44°18' E 008°29'0 0.0
2014-Jul-22 19:33N 44°18' E 008°29'0 0.0
2014-Jul-22 18:33N 44°18' E 008°29'0 0.0
2014-Jul-22 17:33N 44°18' E 008°29'0 0.0
2014-Jul-22 16:33N 44°18' E 008°29'0 0.0
2014-Jul-22 15:33N 44°18' E 008°29'0 0.0
2014-Jul-22 14:29N 44°18' E 008°29'0 0.0
2014-Jul-22 13:32N 44°18' E 008°29'0 0.0
2014-Jul-22 12:33N 44°18' E 008°29'0 0.0
2014-Jul-22 11:33N 44°18' E 008°29'0 0.0
2014-Jul-22 10:28N 44°18' E 008°29'0 0.0
2014-Jul-21 16:08N 44°18' E 008°29'1 1.2
2014-Jul-21 15:33N 44°19' E 008°30'3 3.1
2014-Jul-21 14:33N 44°16' E 008°28'0 0.2
2014-Jul-21 13:27N 44°17' E 008°28'1 0.8
2014-Jul-21 12:15N 44°16' E 008°27'0 0.0
2014-Jul-21 11:33N 44°16' E 008°27'0 0.0
2014-Jul-21 10:24N 44°16' E 008°27'0 0.0
2014-Jul-21 09:30N 44°16' E 008°27'0 0.0
2014-Jul-21 08:17N 44°16' E 008°27'0 0.0
2014-Jul-21 07:33N 44°16' E 008°27'1 0.5
2014-Jul-21 06:19N 44°16' E 008°27'1 0.6
2014-Jul-21 05:18N 44°16' E 008°27'2 1.9
2014-Jul-21 04:26N 44°17' E 008°29'2 1.8
2014-Jul-21 03:32N 44°18' E 008°29'0 0.0
2014-Jul-20 11:32N 44°18' E 008°29'0 0.0
2014-Jul-20 10:17N 44°18' E 008°29'0 0.0
2014-Jul-20 09:33N 44°18' E 008°29'2 2.2
2014-Jul-20 08:33N 44°17' E 008°28'0 0.2
2014-Jul-20 07:33N 44°16' E 008°28'1 0.6
2014-Jul-20 06:33N 44°16' E 008°28'3 0.2
2014-Jul-19 12:06N 44°18' E 008°29'0 0.0
2014-Jul-19 11:31N 44°18' E 008°29'0 0.0
2014-Jul-19 10:31N 44°18' E 008°29'0 0.0
2014-Jul-19 09:21N 44°18' E 008°29'0 0.0
2014-Jul-19 08:04N 44°18' E 008°29'0 0.0
2014-Jul-19 07:24N 44°18' E 008°29'0 0.0
2014-Jul-19 06:33N 44°18' E 008°29'0 0.0
2014-Jul-19 05:33N 44°18' E 008°29'0 0.0
2014-Jul-19 04:26N 44°18' E 008°29'0 0.0
2014-Jul-18 11:33N 44°18' E 008°29'  

Dump ship's entire track history